sensor_id;sensor_type;location;lat;lon;timestamp;P1;durP1;ratioP1;P2;durP2;ratioP2
16506;SDS011;8366;51.020;7.642;2023-03-14T00:00:54;4.20;;;1.17;;
16506;SDS011;8366;51.020;7.642;2023-03-14T00:03:22;5.20;;;1.30;;
16506;SDS011;8366;51.020;7.642;2023-03-14T00:05:48;2.67;;;1.37;;
16506;SDS011;8366;51.020;7.642;2023-03-14T00:08:14;4.50;;;1.10;;
16506;SDS011;8366;51.020;7.642;2023-03-14T00:10:41;2.90;;;1.20;;
16506;SDS011;8366;51.020;7.642;2023-03-14T00:13:08;3.73;;;1.03;;
16506;SDS011;8366;51.020;7.642;2023-03-14T00:15:34;2.93;;;1.10;;
16506;SDS011;8366;51.020;7.642;2023-03-14T00:18:01;3.80;;;1.30;;
16506;SDS011;8366;51.020;7.642;2023-03-14T00:20:28;3.07;;;1.13;;
16506;SDS011;8366;51.020;7.642;2023-03-14T00:22:55;3.53;;;1.00;;
16506;SDS011;8366;51.020;7.642;2023-03-14T00:25:21;2.70;;;1.20;;
16506;SDS011;8366;51.020;7.642;2023-03-14T00:27:49;3.73;;;1.00;;
16506;SDS011;8366;51.020;7.642;2023-03-14T00:30:16;1.87;;;0.97;;
16506;SDS011;8366;51.020;7.642;2023-03-14T00:32:43;3.87;;;1.30;;
16506;SDS011;8366;51.020;7.642;2023-03-14T00:35:09;3.20;;;1.03;;
16506;SDS011;8366;51.020;7.642;2023-03-14T00:37:37;3.80;;;1.30;;
16506;SDS011;8366;51.020;7.642;2023-03-14T00:40:04;3.40;;;1.00;;
16506;SDS011;8366;51.020;7.642;2023-03-14T00:42:32;4.13;;;1.33;;
16506;SDS011;8366;51.020;7.642;2023-03-14T00:44:59;3.47;;;1.20;;
16506;SDS011;8366;51.020;7.642;2023-03-14T00:47:26;3.60;;;0.97;;
16506;SDS011;8366;51.020;7.642;2023-03-14T00:49:52;2.33;;;1.10;;
16506;SDS011;8366;51.020;7.642;2023-03-14T00:52:19;2.70;;;1.20;;
16506;SDS011;8366;51.020;7.642;2023-03-14T00:54:46;4.00;;;1.03;;
16506;SDS011;8366;51.020;7.642;2023-03-14T00:57:13;2.03;;;1.00;;
16506;SDS011;8366;51.020;7.642;2023-03-14T00:59:39;2.07;;;0.90;;
16506;SDS011;8366;51.020;7.642;2023-03-14T01:02:06;4.40;;;1.20;;
16506;SDS011;8366;51.020;7.642;2023-03-14T01:04:32;3.93;;;1.40;;
16506;SDS011;8366;51.020;7.642;2023-03-14T01:06:59;3.07;;;0.97;;
16506;SDS011;8366;51.020;7.642;2023-03-14T01:09:26;2.37;;;1.00;;
16506;SDS011;8366;51.020;7.642;2023-03-14T01:11:53;1.80;;;1.17;;
16506;SDS011;8366;51.020;7.642;2023-03-14T01:14:20;3.80;;;1.17;;
16506;SDS011;8366;51.020;7.642;2023-03-14T01:16:46;4.77;;;1.20;;
16506;SDS011;8366;51.020;7.642;2023-03-14T01:19:13;2.20;;;1.00;;
16506;SDS011;8366;51.020;7.642;2023-03-14T01:21:39;3.17;;;1.00;;
16506;SDS011;8366;51.020;7.642;2023-03-14T01:24:18;2.43;;;1.00;;
16506;SDS011;8366;51.020;7.642;2023-03-14T01:26:45;3.10;;;1.30;;
16506;SDS011;8366;51.020;7.642;2023-03-14T01:29:13;3.23;;;1.10;;
16506;SDS011;8366;51.020;7.642;2023-03-14T01:31:40;2.77;;;1.10;;
16506;SDS011;8366;51.020;7.642;2023-03-14T01:34:06;2.73;;;1.00;;
16506;SDS011;8366;51.020;7.642;2023-03-14T01:36:33;4.47;;;1.20;;
16506;SDS011;8366;51.020;7.642;2023-03-14T01:38:59;4.27;;;1.30;;
16506;SDS011;8366;51.020;7.642;2023-03-14T01:41:25;2.27;;;1.00;;
16506;SDS011;8366;51.020;7.642;2023-03-14T01:43:52;4.17;;;1.13;;
16506;SDS011;8366;51.020;7.642;2023-03-14T01:46:25;3.97;;;1.10;;
16506;SDS011;8366;51.020;7.642;2023-03-14T01:48:55;4.50;;;1.67;;
16506;SDS011;8366;51.020;7.642;2023-03-14T01:51:25;5.17;;;1.17;;
16506;SDS011;8366;51.020;7.642;2023-03-14T01:53:55;4.00;;;1.00;;
16506;SDS011;8366;51.020;7.642;2023-03-14T01:56:26;4.20;;;1.17;;
16506;SDS011;8366;51.020;7.642;2023-03-14T01:58:53;5.93;;;1.40;;
16506;SDS011;8366;51.020;7.642;2023-03-14T02:01:22;6.40;;;1.23;;
16506;SDS011;8366;51.020;7.642;2023-03-14T02:03:52;5.57;;;1.33;;
16506;SDS011;8366;51.020;7.642;2023-03-14T02:06:21;3.93;;;1.03;;
16506;SDS011;8366;51.020;7.642;2023-03-14T02:08:49;4.10;;;1.27;;
16506;SDS011;8366;51.020;7.642;2023-03-14T02:11:16;6.20;;;1.40;;
16506;SDS011;8366;51.020;7.642;2023-03-14T02:13:43;8.83;;;1.37;;
16506;SDS011;8366;51.020;7.642;2023-03-14T02:16:10;3.77;;;1.10;;
16506;SDS011;8366;51.020;7.642;2023-03-14T02:18:38;2.57;;;1.00;;
16506;SDS011;8366;51.020;7.642;2023-03-14T02:21:06;5.00;;;0.93;;
16506;SDS011;8366;51.020;7.642;2023-03-14T02:23:39;2.83;;;0.90;;
16506;SDS011;8366;51.020;7.642;2023-03-14T02:26:11;4.00;;;1.10;;
16506;SDS011;8366;51.020;7.642;2023-03-14T02:28:42;2.73;;;0.77;;
16506;SDS011;8366;51.020;7.642;2023-03-14T02:31:09;3.63;;;1.00;;
16506;SDS011;8366;51.020;7.642;2023-03-14T02:33:36;3.80;;;0.97;;
16506;SDS011;8366;51.020;7.642;2023-03-14T02:36:04;5.50;;;1.40;;
16506;SDS011;8366;51.020;7.642;2023-03-14T02:38:33;5.57;;;1.23;;
16506;SDS011;8366;51.020;7.642;2023-03-14T02:43:31;3.20;;;0.80;;
16506;SDS011;8366;51.020;7.642;2023-03-14T02:46:00;3.07;;;0.90;;
16506;SDS011;8366;51.020;7.642;2023-03-14T02:48:28;3.37;;;1.00;;
16506;SDS011;8366;51.020;7.642;2023-03-14T02:50:57;3.07;;;0.90;;
16506;SDS011;8366;51.020;7.642;2023-03-14T02:53:24;2.47;;;0.80;;
16506;SDS011;8366;51.020;7.642;2023-03-14T02:55:53;1.40;;;0.60;;
16506;SDS011;8366;51.020;7.642;2023-03-14T02:58:19;1.03;;;0.40;;
16506;SDS011;8366;51.020;7.642;2023-03-14T03:00:46;1.97;;;0.50;;
16506;SDS011;8366;51.020;7.642;2023-03-14T03:03:14;1.40;;;0.50;;
16506;SDS011;8366;51.020;7.642;2023-03-14T03:05:41;1.23;;;0.67;;
16506;SDS011;8366;51.020;7.642;2023-03-14T03:08:08;0.77;;;0.40;;
16506;SDS011;8366;51.020;7.642;2023-03-14T03:10:35;1.80;;;0.50;;
16506;SDS011;8366;51.020;7.642;2023-03-14T03:13:02;2.93;;;0.50;;
16506;SDS011;8366;51.020;7.642;2023-03-14T03:15:28;1.03;;;0.50;;
16506;SDS011;8366;51.020;7.642;2023-03-14T03:17:55;0.70;;;0.43;;
16506;SDS011;8366;51.020;7.642;2023-03-14T03:20:23;1.60;;;0.47;;
16506;SDS011;8366;51.020;7.642;2023-03-14T03:22:50;0.70;;;0.60;;
16506;SDS011;8366;51.020;7.642;2023-03-14T03:25:16;1.23;;;0.40;;
16506;SDS011;8366;51.020;7.642;2023-03-14T03:27:42;1.53;;;0.50;;
16506;SDS011;8366;51.020;7.642;2023-03-14T03:30:09;2.20;;;0.50;;
16506;SDS011;8366;51.020;7.642;2023-03-14T03:32:36;1.57;;;0.53;;
16506;SDS011;8366;51.020;7.642;2023-03-14T03:35:03;0.63;;;0.40;;
16506;SDS011;8366;51.020;7.642;2023-03-14T03:37:31;1.80;;;0.60;;
16506;SDS011;8366;51.020;7.642;2023-03-14T03:39:58;2.20;;;0.60;;
16506;SDS011;8366;51.020;7.642;2023-03-14T03:42:25;3.30;;;0.60;;
16506;SDS011;8366;51.020;7.642;2023-03-14T03:44:52;2.67;;;0.70;;
16506;SDS011;8366;51.020;7.642;2023-03-14T03:47:19;4.63;;;1.00;;
16506;SDS011;8366;51.020;7.642;2023-03-14T03:49:45;1.33;;;0.60;;
16506;SDS011;8366;51.020;7.642;2023-03-14T03:52:12;2.40;;;0.93;;
16506;SDS011;8366;51.020;7.642;2023-03-14T03:54:39;4.67;;;0.90;;
16506;SDS011;8366;51.020;7.642;2023-03-14T03:57:06;2.80;;;1.10;;
16506;SDS011;8366;51.020;7.642;2023-03-14T03:59:32;3.37;;;0.90;;
16506;SDS011;8366;51.020;7.642;2023-03-14T04:01:59;5.10;;;1.17;;
16506;SDS011;8366;51.020;7.642;2023-03-14T04:04:25;2.73;;;1.07;;
16506;SDS011;8366;51.020;7.642;2023-03-14T04:06:52;7.03;;;1.20;;
16506;SDS011;8366;51.020;7.642;2023-03-14T04:09:18;4.73;;;1.03;;
16506;SDS011;8366;51.020;7.642;2023-03-14T04:11:46;4.70;;;1.40;;
16506;SDS011;8366;51.020;7.642;2023-03-14T04:14:12;6.23;;;1.40;;
16506;SDS011;8366;51.020;7.642;2023-03-14T04:16:39;4.47;;;1.23;;
16506;SDS011;8366;51.020;7.642;2023-03-14T04:19:05;5.33;;;1.40;;
16506;SDS011;8366;51.020;7.642;2023-03-14T04:21:32;6.07;;;1.10;;
16506;SDS011;8366;51.020;7.642;2023-03-14T04:23:58;6.10;;;1.50;;
16506;SDS011;8366;51.020;7.642;2023-03-14T04:26:25;9.63;;;1.50;;
16506;SDS011;8366;51.020;7.642;2023-03-14T04:28:52;7.87;;;1.27;;
16506;SDS011;8366;51.020;7.642;2023-03-14T04:31:19;4.70;;;1.70;;
16506;SDS011;8366;51.020;7.642;2023-03-14T04:33:47;5.40;;;1.60;;
16506;SDS011;8366;51.020;7.642;2023-03-14T04:36:13;7.17;;;1.60;;
16506;SDS011;8366;51.020;7.642;2023-03-14T04:38:40;7.63;;;1.63;;
16506;SDS011;8366;51.020;7.642;2023-03-14T04:41:06;7.83;;;1.60;;
16506;SDS011;8366;51.020;7.642;2023-03-14T04:43:33;7.43;;;1.70;;
16506;SDS011;8366;51.020;7.642;2023-03-14T04:46:01;4.97;;;1.40;;
16506;SDS011;8366;51.020;7.642;2023-03-14T04:48:27;5.87;;;1.73;;
16506;SDS011;8366;51.020;7.642;2023-03-14T04:50:54;5.27;;;1.53;;
16506;SDS011;8366;51.020;7.642;2023-03-14T04:53:21;7.43;;;1.60;;
16506;SDS011;8366;51.020;7.642;2023-03-14T04:55:48;6.43;;;1.60;;
16506;SDS011;8366;51.020;7.642;2023-03-14T04:58:15;3.83;;;1.23;;
16506;SDS011;8366;51.020;7.642;2023-03-14T05:00:41;5.73;;;1.60;;
16506;SDS011;8366;51.020;7.642;2023-03-14T05:03:09;5.13;;;1.50;;
16506;SDS011;8366;51.020;7.642;2023-03-14T05:05:36;4.07;;;1.70;;
16506;SDS011;8366;51.020;7.642;2023-03-14T05:08:02;5.97;;;1.90;;
16506;SDS011;8366;51.020;7.642;2023-03-14T05:10:29;6.43;;;1.50;;
16506;SDS011;8366;51.020;7.642;2023-03-14T05:12:55;5.30;;;1.60;;
16506;SDS011;8366;51.020;7.642;2023-03-14T05:15:22;4.27;;;1.13;;
16506;SDS011;8366;51.020;7.642;2023-03-14T05:17:49;6.60;;;1.07;;
16506;SDS011;8366;51.020;7.642;2023-03-14T05:20:16;4.07;;;1.40;;
16506;SDS011;8366;51.020;7.642;2023-03-14T05:22:43;5.33;;;1.37;;
16506;SDS011;8366;51.020;7.642;2023-03-14T05:25:09;4.50;;;1.40;;
16506;SDS011;8366;51.020;7.642;2023-03-14T05:27:36;7.20;;;1.40;;
16506;SDS011;8366;51.020;7.642;2023-03-14T05:30:03;5.07;;;1.47;;
16506;SDS011;8366;51.020;7.642;2023-03-14T05:32:30;3.60;;;1.63;;
16506;SDS011;8366;51.020;7.642;2023-03-14T05:34:56;4.83;;;1.37;;
16506;SDS011;8366;51.020;7.642;2023-03-14T05:37:25;3.03;;;1.10;;
16506;SDS011;8366;51.020;7.642;2023-03-14T05:39:52;4.37;;;1.10;;
16506;SDS011;8366;51.020;7.642;2023-03-14T05:42:19;3.10;;;0.93;;
16506;SDS011;8366;51.020;7.642;2023-03-14T05:44:45;2.13;;;1.10;;
16506;SDS011;8366;51.020;7.642;2023-03-14T05:47:12;2.57;;;1.10;;
16506;SDS011;8366;51.020;7.642;2023-03-14T05:49:38;4.17;;;0.90;;
16506;SDS011;8366;51.020;7.642;2023-03-14T05:52:05;5.17;;;0.80;;
16506;SDS011;8366;51.020;7.642;2023-03-14T05:54:32;3.60;;;0.80;;
16506;SDS011;8366;51.020;7.642;2023-03-14T05:56:59;2.13;;;0.83;;
16506;SDS011;8366;51.020;7.642;2023-03-14T05:59:26;2.07;;;0.90;;
16506;SDS011;8366;51.020;7.642;2023-03-14T06:01:52;2.97;;;1.03;;
16506;SDS011;8366;51.020;7.642;2023-03-14T06:04:19;3.23;;;1.10;;
16506;SDS011;8366;51.020;7.642;2023-03-14T06:06:45;2.33;;;1.27;;
16506;SDS011;8366;51.020;7.642;2023-03-14T06:09:12;3.97;;;1.00;;
16506;SDS011;8366;51.020;7.642;2023-03-14T06:11:40;4.77;;;2.00;;
16506;SDS011;8366;51.020;7.642;2023-03-14T06:14:06;8.83;;;2.83;;
16506;SDS011;8366;51.020;7.642;2023-03-14T06:16:33;4.10;;;1.80;;
16506;SDS011;8366;51.020;7.642;2023-03-14T06:18:59;2.33;;;1.30;;
16506;SDS011;8366;51.020;7.642;2023-03-14T06:21:26;4.47;;;1.00;;
16506;SDS011;8366;51.020;7.642;2023-03-14T06:23:52;3.87;;;1.03;;
16506;SDS011;8366;51.020;7.642;2023-03-14T06:26:19;1.53;;;0.80;;
16506;SDS011;8366;51.020;7.642;2023-03-14T06:28:47;1.60;;;0.80;;
16506;SDS011;8366;51.020;7.642;2023-03-14T06:31:13;2.07;;;0.80;;
16506;SDS011;8366;51.020;7.642;2023-03-14T06:36:22;2.73;;;1.00;;
16506;SDS011;8366;51.020;7.642;2023-03-14T06:38:49;2.90;;;0.90;;
16506;SDS011;8366;51.020;7.642;2023-03-14T06:41:15;2.13;;;0.83;;
16506;SDS011;8366;51.020;7.642;2023-03-14T06:48:53;3.17;;;0.87;;
16506;SDS011;8366;51.020;7.642;2023-03-14T06:51:20;0.70;;;0.50;;
16506;SDS011;8366;51.020;7.642;2023-03-14T06:53:46;1.33;;;0.50;;
16506;SDS011;8366;51.020;7.642;2023-03-14T06:56:13;1.70;;;0.50;;
16506;SDS011;8366;51.020;7.642;2023-03-14T07:01:37;0.83;;;0.50;;
16506;SDS011;8366;51.020;7.642;2023-03-14T07:04:04;0.80;;;0.50;;
16506;SDS011;8366;51.020;7.642;2023-03-14T07:06:31;1.27;;;0.50;;
16506;SDS011;8366;51.020;7.642;2023-03-14T07:08:58;1.90;;;0.50;;
16506;SDS011;8366;51.020;7.642;2023-03-14T07:11:25;1.77;;;0.63;;
16506;SDS011;8366;51.020;7.642;2023-03-14T07:13:52;1.07;;;0.70;;
16506;SDS011;8366;51.020;7.642;2023-03-14T07:16:18;3.03;;;1.70;;
16506;SDS011;8366;51.020;7.642;2023-03-14T07:18:45;1.90;;;1.50;;
16506;SDS011;8366;51.020;7.642;2023-03-14T07:21:13;1.97;;;1.10;;
16506;SDS011;8366;51.020;7.642;2023-03-14T07:23:40;3.77;;;2.70;;
16506;SDS011;8366;51.020;7.642;2023-03-14T07:26:06;3.50;;;2.10;;
16506;SDS011;8366;51.020;7.642;2023-03-14T07:28:33;1.33;;;1.03;;
16506;SDS011;8366;51.020;7.642;2023-03-14T07:30:59;0.67;;;0.60;;
16506;SDS011;8366;51.020;7.642;2023-03-14T07:33:26;0.77;;;0.50;;
16506;SDS011;8366;51.020;7.642;2023-03-14T07:35:52;0.40;;;0.40;;
16506;SDS011;8366;51.020;7.642;2023-03-14T07:38:20;0.97;;;0.50;;
16506;SDS011;8366;51.020;7.642;2023-03-14T07:40:47;0.40;;;0.30;;
16506;SDS011;8366;51.020;7.642;2023-03-14T07:43:13;0.30;;;0.30;;
16506;SDS011;8366;51.020;7.642;2023-03-14T07:45:40;0.80;;;0.60;;
16506;SDS011;8366;51.020;7.642;2023-03-14T07:48:06;0.53;;;0.43;;
16506;SDS011;8366;51.020;7.642;2023-03-14T07:50:33;2.10;;;0.33;;
16506;SDS011;8366;51.020;7.642;2023-03-14T07:52:59;0.70;;;0.40;;
16506;SDS011;8366;51.020;7.642;2023-03-14T07:55:27;0.90;;;0.50;;
16506;SDS011;8366;51.020;7.642;2023-03-14T07:57:54;0.43;;;0.37;;
16506;SDS011;8366;51.020;7.642;2023-03-14T08:00:20;0.57;;;0.50;;
16506;SDS011;8366;51.020;7.642;2023-03-14T08:02:47;0.40;;;0.30;;
16506;SDS011;8366;51.020;7.642;2023-03-14T08:05:14;0.60;;;0.40;;
16506;SDS011;8366;51.020;7.642;2023-03-14T08:07:40;0.83;;;0.40;;
16506;SDS011;8366;51.020;7.642;2023-03-14T08:10:07;0.97;;;0.50;;
16506;SDS011;8366;51.020;7.642;2023-03-14T08:12:36;0.30;;;0.30;;
16506;SDS011;8366;51.020;7.642;2023-03-14T08:15:02;1.70;;;0.50;;
16506;SDS011;8366;51.020;7.642;2023-03-14T08:17:29;0.30;;;0.30;;
16506;SDS011;8366;51.020;7.642;2023-03-14T08:19:56;0.47;;;0.40;;
16506;SDS011;8366;51.020;7.642;2023-03-14T08:22:22;0.67;;;0.40;;
16506;SDS011;8366;51.020;7.642;2023-03-14T08:24:49;0.70;;;0.30;;
16506;SDS011;8366;51.020;7.642;2023-03-14T08:27:15;0.90;;;0.40;;
16506;SDS011;8366;51.020;7.642;2023-03-14T08:29:43;0.40;;;0.40;;
16506;SDS011;8366;51.020;7.642;2023-03-14T08:32:09;0.40;;;0.40;;
16506;SDS011;8366;51.020;7.642;2023-03-14T08:34:36;0.47;;;0.30;;
16506;SDS011;8366;51.020;7.642;2023-03-14T08:37:04;0.53;;;0.40;;
16506;SDS011;8366;51.020;7.642;2023-03-14T08:39:31;0.40;;;0.30;;
16506;SDS011;8366;51.020;7.642;2023-03-14T08:41:57;0.40;;;0.20;;
16506;SDS011;8366;51.020;7.642;2023-03-14T08:44:24;0.30;;;0.30;;
16506;SDS011;8366;51.020;7.642;2023-03-14T08:46:52;0.30;;;0.30;;
16506;SDS011;8366;51.020;7.642;2023-03-14T08:49:18;0.50;;;0.30;;
16506;SDS011;8366;51.020;7.642;2023-03-14T08:51:45;0.40;;;0.40;;
16506;SDS011;8366;51.020;7.642;2023-03-14T08:54:11;0.40;;;0.30;;
16506;SDS011;8366;51.020;7.642;2023-03-14T08:56:38;1.03;;;0.40;;
16506;SDS011;8366;51.020;7.642;2023-03-14T08:59:05;0.70;;;0.30;;
16506;SDS011;8366;51.020;7.642;2023-03-14T09:01:33;0.63;;;0.40;;
16506;SDS011;8366;51.020;7.642;2023-03-14T09:04:01;0.40;;;0.30;;
16506;SDS011;8366;51.020;7.642;2023-03-14T09:06:27;0.60;;;0.50;;
16506;SDS011;8366;51.020;7.642;2023-03-14T09:08:53;0.80;;;0.40;;
16506;SDS011;8366;51.020;7.642;2023-03-14T09:11:20;0.50;;;0.37;;
16506;SDS011;8366;51.020;7.642;2023-03-14T09:13:46;0.30;;;0.30;;
16506;SDS011;8366;51.020;7.642;2023-03-14T09:16:13;0.60;;;0.30;;
16506;SDS011;8366;51.020;7.642;2023-03-14T09:18:40;2.10;;;0.40;;
16506;SDS011;8366;51.020;7.642;2023-03-14T09:21:08;0.50;;;0.40;;
16506;SDS011;8366;51.020;7.642;2023-03-14T09:23:43;0.70;;;0.40;;
16506;SDS011;8366;51.020;7.642;2023-03-14T09:26:10;0.40;;;0.40;;
16506;SDS011;8366;51.020;7.642;2023-03-14T09:28:37;0.63;;;0.40;;
16506;SDS011;8366;51.020;7.642;2023-03-14T09:31:07;1.20;;;0.40;;
16506;SDS011;8366;51.020;7.642;2023-03-14T09:33:34;1.77;;;0.70;;
16506;SDS011;8366;51.020;7.642;2023-03-14T09:36:00;1.50;;;0.80;;
16506;SDS011;8366;51.020;7.642;2023-03-14T09:38:28;0.50;;;0.40;;
16506;SDS011;8366;51.020;7.642;2023-03-14T09:40:55;1.20;;;0.37;;
16506;SDS011;8366;51.020;7.642;2023-03-14T09:43:23;0.40;;;0.40;;
16506;SDS011;8366;51.020;7.642;2023-03-14T09:45:51;0.83;;;0.50;;
16506;SDS011;8366;51.020;7.642;2023-03-14T09:48:19;0.20;;;0.20;;
16506;SDS011;8366;51.020;7.642;2023-03-14T09:50:49;1.03;;;0.40;;
16506;SDS011;8366;51.020;7.642;2023-03-14T09:53:17;0.67;;;0.60;;
16506;SDS011;8366;51.020;7.642;2023-03-14T09:55:47;1.60;;;1.00;;
16506;SDS011;8366;51.020;7.642;2023-03-14T09:58:16;1.30;;;1.00;;
16506;SDS011;8366;51.020;7.642;2023-03-14T10:00:44;0.63;;;0.40;;
16506;SDS011;8366;51.020;7.642;2023-03-14T10:03:21;1.10;;;0.67;;
16506;SDS011;8366;51.020;7.642;2023-03-14T10:05:49;0.77;;;0.60;;
16506;SDS011;8366;51.020;7.642;2023-03-14T10:08:15;0.60;;;0.57;;
16506;SDS011;8366;51.020;7.642;2023-03-14T10:10:42;1.83;;;0.53;;
16506;SDS011;8366;51.020;7.642;2023-03-14T10:13:13;0.83;;;0.40;;
16506;SDS011;8366;51.020;7.642;2023-03-14T10:15:41;0.70;;;0.40;;
16506;SDS011;8366;51.020;7.642;2023-03-14T10:18:13;0.80;;;0.50;;
16506;SDS011;8366;51.020;7.642;2023-03-14T10:20:41;0.77;;;0.50;;
16506;SDS011;8366;51.020;7.642;2023-03-14T10:23:19;0.90;;;0.60;;
16506;SDS011;8366;51.020;7.642;2023-03-14T10:25:58;1.27;;;0.40;;
16506;SDS011;8366;51.020;7.642;2023-03-14T10:28:28;2.17;;;0.70;;
16506;SDS011;8366;51.020;7.642;2023-03-14T10:30:56;0.60;;;0.60;;
16506;SDS011;8366;51.020;7.642;2023-03-14T10:33:24;0.70;;;0.70;;
16506;SDS011;8366;51.020;7.642;2023-03-14T10:35:52;0.47;;;0.43;;
16506;SDS011;8366;51.020;7.642;2023-03-14T10:38:27;0.87;;;0.40;;
16506;SDS011;8366;51.020;7.642;2023-03-14T10:40:54;1.57;;;0.33;;
16506;SDS011;8366;51.020;7.642;2023-03-14T10:43:24;0.40;;;0.40;;
16506;SDS011;8366;51.020;7.642;2023-03-14T10:45:54;0.90;;;0.50;;
16506;SDS011;8366;51.020;7.642;2023-03-14T10:48:23;0.90;;;0.40;;
16506;SDS011;8366;51.020;7.642;2023-03-14T10:50:54;0.50;;;0.50;;
16506;SDS011;8366;51.020;7.642;2023-03-14T10:53:22;0.80;;;0.50;;
16506;SDS011;8366;51.020;7.642;2023-03-14T10:55:49;0.60;;;0.50;;
16506;SDS011;8366;51.020;7.642;2023-03-14T10:58:20;0.30;;;0.30;;
16506;SDS011;8366;51.020;7.642;2023-03-14T11:00:48;0.73;;;0.50;;
16506;SDS011;8366;51.020;7.642;2023-03-14T11:03:19;0.40;;;0.40;;
16506;SDS011;8366;51.020;7.642;2023-03-14T11:05:48;0.40;;;0.40;;
16506;SDS011;8366;51.020;7.642;2023-03-14T11:08:18;0.50;;;0.50;;
16506;SDS011;8366;51.020;7.642;2023-03-14T11:10:48;0.40;;;0.40;;
16506;SDS011;8366;51.020;7.642;2023-03-14T11:13:19;0.67;;;0.40;;
16506;SDS011;8366;51.020;7.642;2023-03-14T11:15:51;1.27;;;0.53;;
16506;SDS011;8366;51.020;7.642;2023-03-14T11:18:35;1.00;;;0.60;;
16506;SDS011;8366;51.020;7.642;2023-03-14T11:21:11;0.40;;;0.30;;
16506;SDS011;8366;51.020;7.642;2023-03-14T11:23:41;0.80;;;0.60;;
16506;SDS011;8366;51.020;7.642;2023-03-14T11:26:13;2.77;;;0.67;;
16506;SDS011;8366;51.020;7.642;2023-03-14T11:28:46;0.90;;;0.60;;
16506;SDS011;8366;51.020;7.642;2023-03-14T11:31:16;0.73;;;0.73;;
16506;SDS011;8366;51.020;7.642;2023-03-14T11:33:49;1.40;;;0.90;;
16506;SDS011;8366;51.020;7.642;2023-03-14T11:36:20;1.00;;;0.90;;
16506;SDS011;8366;51.020;7.642;2023-03-14T11:38:49;0.80;;;0.80;;
16506;SDS011;8366;51.020;7.642;2023-03-14T11:41:18;2.00;;;0.93;;
16506;SDS011;8366;51.020;7.642;2023-03-14T11:43:47;1.23;;;0.83;;
16506;SDS011;8366;51.020;7.642;2023-03-14T11:46:15;1.57;;;0.87;;
16506;SDS011;8366;51.020;7.642;2023-03-14T11:48:45;1.20;;;1.00;;
16506;SDS011;8366;51.020;7.642;2023-03-14T11:51:18;0.73;;;0.73;;
16506;SDS011;8366;51.020;7.642;2023-03-14T11:53:50;0.90;;;0.90;;
16506;SDS011;8366;51.020;7.642;2023-03-14T11:56:24;1.20;;;1.00;;
16506;SDS011;8366;51.020;7.642;2023-03-14T11:58:55;2.03;;;1.00;;
16506;SDS011;8366;51.020;7.642;2023-03-14T12:01:27;1.03;;;0.90;;
16506;SDS011;8366;51.020;7.642;2023-03-14T12:04:00;1.43;;;0.90;;
16506;SDS011;8366;51.020;7.642;2023-03-14T12:06:31;1.10;;;0.80;;
16506;SDS011;8366;51.020;7.642;2023-03-14T12:09:02;0.97;;;0.70;;
16506;SDS011;8366;51.020;7.642;2023-03-14T12:11:33;1.47;;;0.80;;
16506;SDS011;8366;51.020;7.642;2023-03-14T12:14:02;0.63;;;0.60;;
16506;SDS011;8366;51.020;7.642;2023-03-14T12:16:33;0.90;;;0.80;;
16506;SDS011;8366;51.020;7.642;2023-03-14T12:22:07;2.50;;;1.00;;
16506;SDS011;8366;51.020;7.642;2023-03-14T12:27:12;2.30;;;1.50;;
16506;SDS011;8366;51.020;7.642;2023-03-14T12:32:24;1.93;;;1.40;;
16506;SDS011;8366;51.020;7.642;2023-03-14T12:34:52;2.97;;;1.80;;
16506;SDS011;8366;51.020;7.642;2023-03-14T12:37:22;1.83;;;1.50;;
16506;SDS011;8366;51.020;7.642;2023-03-14T12:39:56;1.47;;;1.37;;
16506;SDS011;8366;51.020;7.642;2023-03-14T12:42:38;2.80;;;1.53;;
16506;SDS011;8366;51.020;7.642;2023-03-14T12:45:23;2.30;;;1.40;;
16506;SDS011;8366;51.020;7.642;2023-03-14T12:47:52;1.83;;;1.40;;
16506;SDS011;8366;51.020;7.642;2023-03-14T12:50:24;1.37;;;1.27;;
16506;SDS011;8366;51.020;7.642;2023-03-14T12:55:56;3.50;;;1.33;;
16506;SDS011;8366;51.020;7.642;2023-03-14T12:58:28;1.60;;;1.20;;
16506;SDS011;8366;51.020;7.642;2023-03-14T13:00:59;2.40;;;1.20;;
16506;SDS011;8366;51.020;7.642;2023-03-14T13:03:27;2.00;;;1.20;;
16506;SDS011;8366;51.020;7.642;2023-03-14T13:06:05;1.40;;;1.30;;
16506;SDS011;8366;51.020;7.642;2023-03-14T13:08:33;2.80;;;1.20;;
16506;SDS011;8366;51.020;7.642;2023-03-14T13:11:02;2.23;;;1.20;;
16506;SDS011;8366;51.020;7.642;2023-03-14T13:13:31;2.47;;;1.37;;
16506;SDS011;8366;51.020;7.642;2023-03-14T13:16:00;3.67;;;1.47;;
16506;SDS011;8366;51.020;7.642;2023-03-14T13:18:29;1.83;;;1.10;;
16506;SDS011;8366;51.020;7.642;2023-03-14T13:21:18;1.43;;;1.20;;
16506;SDS011;8366;51.020;7.642;2023-03-14T13:23:56;1.40;;;1.30;;
16506;SDS011;8366;51.020;7.642;2023-03-14T13:26:24;2.50;;;1.60;;
16506;SDS011;8366;51.020;7.642;2023-03-14T13:28:53;1.77;;;1.17;;
16506;SDS011;8366;51.020;7.642;2023-03-14T13:31:21;2.67;;;1.50;;
16506;SDS011;8366;51.020;7.642;2023-03-14T13:33:56;2.73;;;1.37;;
16506;SDS011;8366;51.020;7.642;2023-03-14T13:36:26;1.60;;;1.47;;
16506;SDS011;8366;51.020;7.642;2023-03-14T13:38:56;2.63;;;1.40;;
16506;SDS011;8366;51.020;7.642;2023-03-14T13:41:23;2.73;;;1.63;;
16506;SDS011;8366;51.020;7.642;2023-03-14T13:43:50;2.30;;;1.53;;
16506;SDS011;8366;51.020;7.642;2023-03-14T13:46:19;3.30;;;1.63;;
16506;SDS011;8366;51.020;7.642;2023-03-14T13:48:47;3.60;;;1.60;;
16506;SDS011;8366;51.020;7.642;2023-03-14T13:51:16;3.90;;;1.57;;
16506;SDS011;8366;51.020;7.642;2023-03-14T13:53:45;1.97;;;1.50;;
16506;SDS011;8366;51.020;7.642;2023-03-14T13:56:12;3.87;;;2.17;;
16506;SDS011;8366;51.020;7.642;2023-03-14T13:58:40;2.70;;;1.40;;
16506;SDS011;8366;51.020;7.642;2023-03-14T14:01:10;1.63;;;1.33;;
16506;SDS011;8366;51.020;7.642;2023-03-14T14:03:40;3.70;;;1.43;;
16506;SDS011;8366;51.020;7.642;2023-03-14T14:06:09;1.50;;;1.20;;
16506;SDS011;8366;51.020;7.642;2023-03-14T14:08:42;2.17;;;1.30;;
16506;SDS011;8366;51.020;7.642;2023-03-14T14:11:14;1.87;;;1.10;;
16506;SDS011;8366;51.020;7.642;2023-03-14T14:13:47;2.33;;;1.10;;
16506;SDS011;8366;51.020;7.642;2023-03-14T14:16:14;1.20;;;1.00;;
16506;SDS011;8366;51.020;7.642;2023-03-14T14:18:42;2.47;;;1.10;;
16506;SDS011;8366;51.020;7.642;2023-03-14T14:21:09;2.03;;;1.10;;
16506;SDS011;8366;51.020;7.642;2023-03-14T14:23:37;3.77;;;1.30;;
16506;SDS011;8366;51.020;7.642;2023-03-14T14:26:04;1.60;;;1.00;;
16506;SDS011;8366;51.020;7.642;2023-03-14T14:28:34;1.70;;;1.00;;
16506;SDS011;8366;51.020;7.642;2023-03-14T14:31:05;1.40;;;1.00;;
16506;SDS011;8366;51.020;7.642;2023-03-14T14:33:45;2.50;;;1.20;;
16506;SDS011;8366;51.020;7.642;2023-03-14T14:36:14;1.60;;;1.10;;
16506;SDS011;8366;51.020;7.642;2023-03-14T14:38:48;2.60;;;1.20;;
16506;SDS011;8366;51.020;7.642;2023-03-14T14:41:16;3.27;;;1.17;;
16506;SDS011;8366;51.020;7.642;2023-03-14T14:43:43;3.57;;;1.60;;
16506;SDS011;8366;51.020;7.642;2023-03-14T14:46:13;4.23;;;2.17;;
16506;SDS011;8366;51.020;7.642;2023-03-14T14:48:43;2.53;;;1.33;;
16506;SDS011;8366;51.020;7.642;2023-03-14T14:51:21;4.57;;;1.63;;
16506;SDS011;8366;51.020;7.642;2023-03-14T14:53:49;7.53;;;1.50;;
16506;SDS011;8366;51.020;7.642;2023-03-14T14:56:16;5.20;;;1.60;;
16506;SDS011;8366;51.020;7.642;2023-03-14T14:58:45;5.90;;;2.60;;
16506;SDS011;8366;51.020;7.642;2023-03-14T15:01:13;7.77;;;1.83;;
16506;SDS011;8366;51.020;7.642;2023-03-14T15:03:41;7.63;;;2.73;;
16506;SDS011;8366;51.020;7.642;2023-03-14T15:06:08;7.67;;;1.83;;
16506;SDS011;8366;51.020;7.642;2023-03-14T15:08:36;7.27;;;2.00;;
16506;SDS011;8366;51.020;7.642;2023-03-14T15:11:03;4.13;;;1.70;;
16506;SDS011;8366;51.020;7.642;2023-03-14T15:13:30;5.77;;;1.87;;
16506;SDS011;8366;51.020;7.642;2023-03-14T15:15:58;6.67;;;1.80;;
16506;SDS011;8366;51.020;7.642;2023-03-14T15:18:25;5.37;;;1.83;;
16506;SDS011;8366;51.020;7.642;2023-03-14T15:20:53;7.50;;;2.53;;
16506;SDS011;8366;51.020;7.642;2023-03-14T15:23:21;8.00;;;1.83;;
16506;SDS011;8366;51.020;7.642;2023-03-14T15:25:47;4.70;;;1.83;;
16506;SDS011;8366;51.020;7.642;2023-03-14T15:28:16;13.50;;;6.47;;
16506;SDS011;8366;51.020;7.642;2023-03-14T15:30:45;4.97;;;1.90;;